Time;durP1;ratioP1;P1;durP2;ratioP2;P2;SDS_P1;SDS_P2;PMS_P1;PMS_P2;Temp;Humidity;BMP_temperature;BMP_pressure;BME280_temperature;BME280_humidity;BME280_pressure;Samples;Min_cycle;Max_cycle;Signal;HPM_P1;HPM_P2
2023/07/11 00:00:52;;;;;;;12.88;10.05;;;17.20;99.90;;;;;;8239579;28;20385;-79
2023/07/11 00:04:53;;;;;;;13.27;9.15;;;17.10;99.90;;;;;;8228824;28;20054;-79
2023/07/11 00:08:54;;;;;;;14.48;10.63;;;16.90;99.90;;;;;;8242779;28;20064;-80
2023/07/11 00:12:55;;;;;;;15.77;10.15;;;16.90;99.90;;;;;;8233992;28;20101;-79
2023/07/11 00:16:55;;;;;;;13.82;10.45;;;16.90;99.90;;;;;;8257535;28;20014;-80
2023/07/11 00:20:56;;;;;;;13.27;10.13;;;16.90;99.90;;;;;;8218853;28;20022;-80
2023/07/11 00:24:57;;;;;;;16.30;9.52;;;16.80;99.90;;;;;;8247234;28;20026;-79
2023/07/11 00:29:18;;;;;;;14.10;10.82;;;16.90;99.90;;;;;;8231460;28;20090;-78
2023/07/11 00:33:18;;;;;;;;;;;17.00;99.90;;;;;;8240322;28;20403;-79
2023/07/11 00:37:19;;;;;;;13.43;9.93;;;17.00;99.90;;;;;;8244870;28;19910;-79
2023/07/11 00:41:19;;;;;;;15.25;10.18;;;16.90;99.90;;;;;;8234556;28;20493;-79
2023/07/11 00:46:00;;;;;;;17.05;9.70;;;16.90;99.90;;;;;;8230514;28;20031;-79
2023/07/11 00:50:06;;;;;;;14.55;9.70;;;16.80;99.90;;;;;;8222605;28;20046;-79
2023/07/11 00:54:10;;;;;;;14.55;10.80;;;16.70;99.90;;;;;;8230597;28;20039;-79
2023/07/11 00:58:15;;;;;;;12.55;9.80;;;16.50;99.90;;;;;;8219953;28;20037;-79
2023/07/11 01:02:19;;;;;;;14.85;10.23;;;16.50;99.90;;;;;;8250575;28;20021;-80
2023/07/11 01:06:23;;;;;;;16.38;10.18;;;16.40;99.90;;;;;;8245027;28;20014;-78
2023/07/11 01:10:24;;;;;;;16.98;10.68;;;16.40;99.90;;;;;;8239362;28;20465;-79
2023/07/11 01:14:26;;;;;;;14.98;10.55;;;16.30;99.90;;;;;;8240964;28;20026;-79
2023/07/11 01:18:26;;;;;;;16.05;9.32;;;16.20;99.90;;;;;;8244847;28;20030;-79
2023/07/11 01:22:29;;;;;;;15.98;11.20;;;16.00;99.90;;;;;;8241973;28;20516;-79
2023/07/11 01:26:30;;;;;;;18.02;11.88;;;16.00;99.90;;;;;;8238452;28;20122;-79
2023/07/11 01:30:30;;;;;;;16.17;12.65;;;15.80;99.90;;;;;;8257422;28;20022;-78
2023/07/11 01:34:31;;;;;;;16.45;11.30;;;15.80;99.90;;;;;;8249528;28;20044;-79
2023/07/11 01:38:31;;;;;;;17.50;11.52;;;15.70;99.90;;;;;;8237649;28;20069;-79
2023/07/11 01:42:32;;;;;;;15.48;11.05;;;15.90;99.90;;;;;;8232285;28;20026;-80
2023/07/11 01:46:32;;;;;;;20.17;11.05;;;15.90;99.90;;;;;;8255410;28;20023;-79
2023/07/11 01:50:33;;;;;;;17.17;10.88;;;15.80;99.90;;;;;;8245358;28;20177;-80
2023/07/11 01:54:34;;;;;;;19.77;11.30;;;16.00;99.90;;;;;;8234487;28;20034;-79
2023/07/11 01:58:34;;;;;;;17.67;10.60;;;15.90;99.90;;;;;;8242561;28;20405;-78
2023/07/11 02:02:35;;;;;;;17.13;10.45;;;15.90;99.90;;;;;;8257980;28;20027;-79
2023/07/11 02:06:35;;;;;;;18.55;11.40;;;15.90;99.90;;;;;;8238151;28;20117;-79
2023/07/11 02:10:36;;;;;;;18.80;11.05;;;15.80;99.90;;;;;;8240111;28;20022;-79
2023/07/11 02:14:40;;;;;;;18.90;10.77;;;15.70;99.90;;;;;;8251415;28;20058;-79
2023/07/11 02:18:41;;;;;;;22.15;11.85;;;15.60;99.90;;;;;;8248634;28;20109;-79
2023/07/11 02:22:41;;;;;;;16.95;12.15;;;15.50;99.90;;;;;;8247581;28;20508;-79
2023/07/11 02:26:42;;;;;;;17.45;10.65;;;15.50;99.90;;;;;;8243307;28;20025;-77
2023/07/11 02:30:43;;;;;;;16.85;11.07;;;15.50;99.90;;;;;;8257796;28;20030;-78
2023/07/11 02:34:43;;;;;;;15.57;10.93;;;15.40;99.90;;;;;;8253785;28;20080;-79
2023/07/11 02:38:44;;;;;;;17.05;10.38;;;15.40;99.90;;;;;;8237633;28;20073;-79
2023/07/11 02:42:45;;;;;;;14.50;10.70;;;15.40;99.90;;;;;;8240035;28;20053;-78
2023/07/11 02:46:45;;;;;;;22.38;11.25;;;15.40;99.90;;;;;;8255232;28;20018;-79
2023/07/11 02:50:45;;;;;;;16.33;11.00;;;15.30;99.90;;;;;;8251161;28;20015;-79
2023/07/11 02:54:46;;;;;;;20.63;12.05;;;15.30;99.90;;;;;;8244666;28;20085;-80
2023/07/11 02:58:50;;;;;;;16.92;11.48;;;15.30;99.90;;;;;;8247158;28;20061;-78
2023/07/11 03:02:50;;;;;;;17.58;11.35;;;15.20;99.90;;;;;;8234338;28;20050;-79
2023/07/11 03:06:54;;;;;;;17.40;11.27;;;15.10;99.90;;;;;;8238151;28;20582;-78
2023/07/11 03:10:59;;;;;;;16.60;11.13;;;15.00;99.90;;;;;;8240085;28;20037;-79
2023/07/11 03:15:00;;;;;;;21.40;11.60;;;14.90;99.90;;;;;;8251505;28;20110;-79
2023/07/11 03:19:00;;;;;;;20.30;11.73;;;14.90;99.90;;;;;;8247602;28;20654;-78
2023/07/11 03:23:01;;;;;;;23.65;13.98;;;14.90;99.90;;;;;;8244588;28;20160;-78
2023/07/11 03:27:01;;;;;;;28.20;14.57;;;15.00;99.90;;;;;;8257575;28;20019;-78
2023/07/11 03:31:02;;;;;;;21.33;12.57;;;15.00;99.90;;;;;;8250370;28;20587;-79
2023/07/11 03:35:03;;;;;;;29.25;12.35;;;15.00;99.90;;;;;;8239983;28;20512;-78
2023/07/11 03:39:04;;;;;;;18.75;13.13;;;15.00;99.90;;;;;;8236154;28;20033;-78
2023/07/11 03:43:04;;;;;;;23.42;12.75;;;14.90;99.90;;;;;;8249020;28;20026;-79
2023/07/11 03:47:05;;;;;;;16.83;12.77;;;14.80;99.90;;;;;;8242021;28;20022;-78
2023/07/11 03:51:06;;;;;;;22.00;13.40;;;14.90;99.90;;;;;;8247635;28;20033;-78
2023/07/11 03:55:07;;;;;;;16.65;12.80;;;14.90;99.90;;;;;;8236442;28;20045;-78
2023/07/11 03:59:08;;;;;;;21.35;13.45;;;14.90;99.90;;;;;;8240048;28;20030;-79
2023/07/11 04:03:08;;;;;;;18.00;12.93;;;15.00;99.90;;;;;;8247492;28;20037;-78
2023/07/11 04:07:09;;;;;;;20.15;13.55;;;15.10;99.90;;;;;;8242590;28;20029;-78
2023/07/11 04:11:10;;;;;;;20.65;11.80;;;15.20;99.90;;;;;;8250549;28;20381;-78
2023/07/11 04:15:11;;;;;;;20.05;12.32;;;15.40;99.90;;;;;;8241480;28;20022;-79
2023/07/11 04:19:11;;;;;;;17.75;12.00;;;15.60;99.90;;;;;;8249574;28;20026;-79
2023/07/11 04:23:13;;;;;;;15.50;10.90;;;15.90;99.90;;;;;;8245313;28;20035;-78
2023/07/11 04:27:14;;;;;;;16.70;11.50;;;16.40;99.90;;;;;;8236023;28;20022;-78
2023/07/11 04:31:14;;;;;;;13.73;10.38;;;17.00;99.90;;;;;;8245957;28;20033;-78
2023/07/11 04:35:16;;;;;;;11.43;9.45;;;17.80;99.90;;;;;;8244881;28;20026;-79
2023/07/11 04:39:16;;;;;;;12.73;9.02;;;18.40;99.90;;;;;;8239377;28;20286;-79
2023/07/11 04:43:17;;;;;;;12.73;9.60;;;18.70;99.90;;;;;;8244398;28;20027;-79
2023/07/11 04:47:17;;;;;;;15.23;9.27;;;19.10;99.90;;;;;;8258700;28;20084;-79
2023/07/11 04:51:18;;;;;;;12.68;9.02;;;19.80;99.90;;;;;;8251467;28;20093;-80
2023/07/11 04:55:19;;;;;;;11.95;9.07;;;20.40;99.90;;;;;;8246877;28;20027;-79
2023/07/11 04:59:19;;;;;;;10.88;8.45;;;21.00;99.90;;;;;;8243112;28;20054;-80
2023/07/11 05:03:20;;;;;;;13.88;8.30;;;22.00;99.90;;;;;;8240863;28;20045;-79
2023/07/11 05:07:20;;;;;;;9.85;8.85;;;22.40;99.90;;;;;;8244160;28;20030;-80
2023/07/11 05:11:21;;;;;;;12.35;8.40;;;22.60;99.90;;;;;;8314969;23;20046;-80
2023/07/11 05:15:22;;;;;;;10.23;8.40;;;23.10;99.90;;;;;;8277494;28;20022;-80
2023/07/11 05:19:22;;;;;;;9.68;7.72;;;24.00;99.90;;;;;;8281465;28;20030;-80
2023/07/11 05:23:28;;;;;;;9.95;8.15;;;24.40;99.90;;;;;;8274032;28;20026;-79
2023/07/11 05:27:28;;;;;;;9.00;7.25;;;24.60;99.90;;;;;;8271990;28;20127;-82
2023/07/11 05:31:29;;;;;;;11.00;8.23;;;24.80;99.90;;;;;;8269064;28;20077;-84
2023/07/11 05:35:29;;;;;;;11.27;8.20;;;24.60;99.90;;;;;;8258884;28;20391;-82
2023/07/11 05:39:30;;;;;;;10.80;7.72;;;25.80;99.90;;;;;;8270697;28;20030;-83
2023/07/11 05:43:30;;;;;;;10.70;7.82;;;25.70;99.90;;;;;;8279229;28;20400;-83
2023/07/11 05:47:31;;;;;;;11.85;7.85;;;25.90;99.90;;;;;;8278774;28;20032;-80
2023/07/11 05:51:32;;;;;;;9.43;7.80;;;26.20;99.90;;;;;;8267247;28;20022;-82
2023/07/11 05:55:32;;;;;;;8.85;7.95;;;26.10;99.90;;;;;;8273467;28;20057;-83
2023/07/11 05:59:33;;;;;;;8.82;7.93;;;26.70;99.90;;;;;;8255197;28;20018;-84
2023/07/11 06:03:33;;;;;;;11.02;8.10;;;27.10;99.90;;;;;;8274550;28;20030;-83
2023/07/11 06:07:34;;;;;;;10.60;8.45;;;27.70;99.90;;;;;;8276034;28;20100;-82
2023/07/11 06:11:35;;;;;;;11.88;8.05;;;28.10;99.90;;;;;;8274429;28;20030;-82
2023/07/11 06:15:35;;;;;;;9.30;8.25;;;28.50;99.90;;;;;;8285001;28;20596;-84
2023/07/11 06:19:41;;;;;;;10.30;8.20;;;29.10;99.90;;;;;;8318982;23;20468;-83
2023/07/11 06:23:43;;;;;;;10.93;8.07;;;29.10;99.90;;;;;;8255217;28;20035;-83
2023/07/11 06:27:44;;;;;;;10.32;8.50;;;29.70;99.90;;;;;;8233762;28;20019;-83
2023/07/11 06:31:45;;;;;;;10.57;7.47;;;30.20;99.90;;;;;;8252205;28;20482;-83
2023/07/11 06:35:49;;;;;;;11.55;8.23;;;30.60;99.90;;;;;;8275801;28;20113;-83
2023/07/11 06:39:53;;;;;;;12.88;8.40;;;30.90;99.90;;;;;;8263868;28;20022;-84
2023/07/11 06:43:54;;;;;;;10.48;8.10;;;30.80;99.90;;;;;;8251968;28;20054;-84
2023/07/11 06:47:54;;;;;;;9.18;8.27;;;30.90;99.90;;;;;;8238492;28;20362;-84
2023/07/11 06:51:55;;;;;;;15.07;8.27;;;31.30;99.90;;;;;;8240283;28;20113;-84
2023/07/11 06:55:55;;;;;;;11.38;7.90;;;32.20;99.90;;;;;;8249196;28;20023;-84
2023/07/11 06:59:56;;;;;;;10.25;8.57;;;32.30;99.90;;;;;;8248594;28;20035;-84
2023/07/11 07:03:57;;;;;;;13.07;8.98;;;32.60;99.90;;;;;;8243587;28;20504;-84
2023/07/11 07:07:57;;;;;;;10.55;7.85;;;32.20;99.90;;;;;;8242482;28;20026;-85
2023/07/11 07:11:58;;;;;;;12.73;8.38;;;32.80;99.90;;;;;;8234359;28;20034;-84
2023/07/11 07:15:59;;;;;;;11.95;8.27;;;32.80;99.90;;;;;;8247900;28;20054;-84
2023/07/11 07:20:00;;;;;;;10.25;8.35;;;33.40;99.90;;;;;;8243498;28;20061;-83
2023/07/11 07:24:00;;;;;;;11.75;8.60;;;33.00;99.90;;;;;;8242766;28;20532;-82
2023/07/11 07:28:01;;;;;;;17.90;9.30;;;33.00;99.60;;;;;;8241440;28;20122;-82
2023/07/11 07:32:02;;;;;;;11.07;8.43;;;33.10;99.60;;;;;;8241327;28;20041;-81
2023/07/11 07:36:06;;;;;;;13.27;8.93;;;32.50;99.90;;;;;;8237306;28;20066;-84
2023/07/11 07:40:10;;;;;;;10.68;8.27;;;32.70;99.90;;;;;;8239534;28;20407;-82
2023/07/11 07:44:12;;;;;;;10.07;8.57;;;33.10;99.00;;;;;;8239413;28;20055;-82
2023/07/11 07:48:13;;;;;;;12.15;8.68;;;33.00;99.90;;;;;;8253514;28;20400;-82
2023/07/11 07:52:13;;;;;;;13.05;8.50;;;33.40;99.20;;;;;;8247073;28;20031;-81
2023/07/11 07:56:18;;;;;;;12.10;8.25;;;33.20;99.90;;;;;;8260374;28;20594;-82
2023/07/11 08:00:18;;;;;;;14.30;8.00;;;33.40;99.60;;;;;;8264488;28;20035;-81
2023/07/11 08:04:19;;;;;;;11.07;7.97;;;33.70;98.60;;;;;;8253094;28;20030;-81
2023/07/11 08:08:20;;;;;;;11.35;8.20;;;33.50;99.90;;;;;;8265333;28;20431;-81
2023/07/11 08:12:20;;;;;;;12.85;8.93;;;33.30;99.30;;;;;;8258455;28;20026;-81
2023/07/11 08:16:21;;;;;;;13.63;8.48;;;33.50;99.60;;;;;;8266382;28;20022;-82
2023/07/11 08:20:24;;;;;;;15.23;8.15;;;34.00;99.90;;;;;;8264372;28;20392;-82
2023/07/11 08:24:25;;;;;;;11.55;8.10;;;34.00;97.00;;;;;;8248220;28;20022;-82
2023/07/11 08:28:36;;;;;;;12.13;8.35;;;33.80;98.60;;;;;;8273959;23;20531;-82
2023/07/11 08:32:46;;;;;;;12.80;8.30;;;34.10;98.60;;;;;;8257102;28;20026;-83
2023/07/11 08:36:52;;;;;;;12.15;8.35;;;34.30;97.50;;;;;;8267968;28;20280;-83
2023/07/11 08:41:39;;;;;;;11.80;7.72;;;34.20;98.60;;;;;;8276175;28;20029;-82
2023/07/11 08:45:54;;;;;;;11.52;8.10;;;34.60;96.90;;;;;;8263069;28;20037;-83
2023/07/11 08:50:18;;;;;;;12.45;7.55;;;34.00;98.70;;;;;;8264988;28;20049;-84
2023/07/11 08:54:29;;;;;;;8.50;7.32;;;33.60;95.40;;;;;;8284480;28;20030;-81
2023/07/11 08:58:48;;;;;;;13.68;7.63;;;33.90;95.40;;;;;;8270771;28;20026;-83
2023/07/11 09:03:16;;;;;;;11.82;7.63;;;34.10;96.90;;;;;;8266600;28;20626;-85
2023/07/11 09:07:36;;;;;;;10.60;7.25;;;34.10;95.60;;;;;;8268204;28;20043;-80
2023/07/11 09:11:49;;;;;;;13.18;6.72;;;34.10;95.90;;;;;;8271465;28;20153;-80
2023/07/11 09:16:27;;;;;;;9.85;6.20;;;34.20;93.60;;;;;;8273290;28;20484;-82
2023/07/11 09:20:44;;;;;;;11.85;6.80;;;33.70;96.00;;;;;;8264151;28;20027;-81
2023/07/11 09:25:07;;;;;;;8.68;6.60;;;34.50;97.60;;;;;;8274087;28;20033;-81
2023/07/11 09:29:07;;;;;;;7.13;5.93;;;34.60;92.20;;;;;;8288993;28;20030;-81
2023/07/11 09:33:19;;;;;;;9.55;6.78;;;34.70;91.70;;;;;;8266054;28;20122;-82
2023/07/11 09:37:28;;;;;;;11.82;7.50;;;34.50;94.30;;;;;;8266435;28;20066;-82
2023/07/11 09:41:45;;;;;;;9.30;6.80;;;34.50;92.50;;;;;;8266787;28;20026;-81
2023/07/11 09:45:46;;;;;;;7.70;5.53;;;34.50;92.30;;;;;;8268804;28;20046;-82
2023/07/11 09:49:49;;;;;;;10.50;6.03;;;34.50;90.70;;;;;;8271585;28;20018;-82
2023/07/11 09:53:49;;;;;;;8.50;5.68;;;34.60;91.40;;;;;;8268760;28;20030;-82
2023/07/11 09:58:26;;;;;;;9.13;6.07;;;34.60;90.20;;;;;;8298579;23;20033;-81
2023/07/11 10:02:28;;;;;;;9.60;5.97;;;34.50;90.60;;;;;;8240106;28;20036;-82
2023/07/11 10:06:55;;;;;;;9.20;5.18;;;34.50;90.10;;;;;;8229985;28;20040;-82
2023/07/11 10:11:03;;;;;;;7.63;5.10;;;34.80;91.60;;;;;;8335723;22;20034;-82
2023/07/11 10:15:12;;;;;;;9.77;5.47;;;35.10;85.70;;;;;;8302519;28;20302;-82
2023/07/11 10:19:17;;;;;;;7.00;5.33;;;35.00;88.70;;;;;;8328276;28;20030;-82
2023/07/11 10:23:22;;;;;;;9.82;5.47;;;35.20;89.10;;;;;;8310759;28;20422;-80
2023/07/11 10:27:29;;;;;;;7.72;5.97;;;35.10;86.90;;;;;;8302193;28;20025;-82
2023/07/11 10:31:35;;;;;;;11.00;6.20;;;34.80;92.50;;;;;;8313948;28;20026;-83
2023/07/11 10:35:37;;;;;;;9.02;5.75;;;35.30;87.50;;;;;;8319431;28;20516;-81
2023/07/11 10:39:51;;;;;;;7.05;5.70;;;35.50;85.30;;;;;;8307774;28;20022;-82
2023/07/11 10:43:52;;;;;;;10.70;6.03;;;35.50;80.50;;;;;;8311698;28;20029;-82
2023/07/11 10:48:04;;;;;;;9.60;6.38;;;35.10;85.70;;;;;;8315071;28;20018;-80
2023/07/11 10:52:22;;;;;;;8.18;6.15;;;34.10;92.80;;;;;;8297727;28;20026;-81
2023/07/11 10:56:28;;;;;;;8.73;6.07;;;34.90;88.30;;;;;;8310365;28;20032;-82
2023/07/11 11:00:49;;;;;;;8.90;6.22;;;35.20;90.60;;;;;;8298069;28;20030;-80
2023/07/11 11:05:13;;;;;;;11.82;6.78;;;35.70;90.10;;;;;;8298105;28;20113;-82
2023/07/11 11:09:35;;;;;;;8.95;6.28;;;35.40;87.90;;;;;;8301477;28;20034;-83
2023/07/11 11:14:10;;;;;;;9.23;6.38;;;36.40;84.50;;;;;;8322374;28;20026;-81
2023/07/11 11:18:14;;;;;;;8.43;5.60;;;37.90;82.90;;;;;;8347383;28;20083;-82
2023/07/11 11:22:27;;;;;;;8.98;5.88;;;38.00;74.90;;;;;;8331800;28;20037;-83
2023/07/11 11:26:30;;;;;;;6.80;6.00;;;37.00;78.50;;;;;;8333154;28;20041;-82
2023/07/11 11:31:04;;;;;;;7.85;5.47;;;37.70;80.00;;;;;;8332016;28;20155;-84
2023/07/11 11:35:23;;;;;;;8.55;5.80;;;38.30;80.80;;;;;;8345772;28;20033;-83
2023/07/11 11:39:38;;;;;;;11.40;5.55;;;38.90;77.40;;;;;;8328533;28;20574;-83
2023/07/11 11:43:40;;;;;;;9.00;5.82;;;38.40;76.00;;;;;;8319250;28;20047;-83
2023/07/11 11:47:42;;;;;;;8.98;6.32;;;39.10;71.00;;;;;;8327579;28;20105;-84
2023/07/11 11:51:44;;;;;;;9.45;5.90;;;39.30;71.40;;;;;;8317655;28;20091;-85
2023/07/11 11:55:56;;;;;;;11.10;5.63;;;39.90;65.00;;;;;;8308220;28;20033;-84
2023/07/11 12:20:02;;;;;;;8.07;5.50;;;41.50;59.00;;;;;;8427875;23;20094;-83
2023/07/11 12:24:23;;;;;;;7.57;5.20;;;41.30;57.60;;;;;;8322947;28;20475;-84
2023/07/11 12:28:23;;;;;;;8.20;5.15;;;41.60;55.20;;;;;;8321184;28;20099;-82
2023/07/11 12:32:33;;;;;;;8.82;5.55;;;41.70;54.20;;;;;;8310671;28;20053;-83
2023/07/11 12:36:50;;;;;;;6.97;5.63;;;41.50;55.90;;;;;;8323850;28;20021;-84
2023/07/11 12:41:26;;;;;;;8.48;5.57;;;41.70;55.30;;;;;;8350284;23;20073;-84
2023/07/11 12:45:37;;;;;;;9.45;5.68;;;41.10;53.30;;;;;;8322248;28;20042;-83
2023/07/11 12:49:41;;;;;;;10.55;5.47;;;41.80;53.30;;;;;;8303253;28;20081;-84
2023/07/11 12:53:42;;;;;;;8.80;4.95;;;42.20;55.60;;;;;;8270907;28;20109;-82
2023/07/11 13:07:37;;;;;;;8.55;4.97;;;41.20;53.80;;;;;;8268032;28;20392;-86
2023/07/11 13:16:39;;;;;;;9.95;5.20;;;41.20;49.90;;;;;;8275308;28;20117;-85
2023/07/11 13:20:40;;;;;;;10.20;5.13;;;41.70;51.30;;;;;;8279143;28;20050;-85
2023/07/11 13:24:41;;;;;;;8.82;5.10;;;41.80;50.30;;;;;;8283753;28;20033;-82
2023/07/11 13:28:41;;;;;;;8.85;5.53;;;42.00;50.10;;;;;;8277869;28;20531;-82
2023/07/11 13:32:42;;;;;;;11.55;5.15;;;42.10;49.50;;;;;;8280796;28;20022;-83
2023/07/11 13:36:46;;;;;;;7.40;4.82;;;42.00;49.00;;;;;;8283231;28;20088;-83
2023/07/11 13:40:56;;;;;;;12.15;5.38;;;43.20;49.20;;;;;;8292498;28;20109;-83
2023/07/11 13:45:11;;;;;;;11.73;5.43;;;43.20;43.70;;;;;;8303243;28;20029;-83
2023/07/11 13:49:23;;;;;;;8.07;5.15;;;42.00;45.90;;;;;;8293489;28;20472;-83
2023/07/11 14:13:18;;;;;;;9.85;6.22;;;42.40;44.10;;;;;;8288876;28;20056;-83
2023/07/11 14:17:20;;;;;;;8.95;6.70;;;43.10;43.60;;;;;;8303299;28;20053;-80
2023/07/11 14:21:20;;;;;;;10.57;6.55;;;43.70;40.20;;;;;;8300145;28;20026;-83
2023/07/11 14:25:24;;;;;;;8.82;6.43;;;43.30;42.40;;;;;;8301258;28;20026;-83
2023/07/11 14:29:28;;;;;;;7.65;5.93;;;43.60;41.10;;;;;;8297230;28;20310;-83
2023/07/11 14:33:33;;;;;;;8.40;5.53;;;44.30;41.20;;;;;;8297842;28;20124;-83
2023/07/11 14:37:33;;;;;;;7.03;5.50;;;43.80;40.00;;;;;;8308248;28;20053;-82
2023/07/11 14:51:28;;;;;;;8.00;7.20;;;43.50;41.70;;;;;;8312047;28;20072;-83
2023/07/11 15:00:29;;;;;;;12.80;7.57;;;43.70;41.30;;;;;;8307786;28;20087;-84
2023/07/11 15:04:31;;;;;;;15.25;7.93;;;44.20;42.40;;;;;;8313895;28;20061;-81
2023/07/11 15:08:31;;;;;;;10.43;7.90;;;44.30;39.90;;;;;;8307035;28;20026;-84
2023/07/11 15:12:34;;;;;;;12.90;7.35;;;43.90;42.00;;;;;;8320156;28;20479;-83
2023/07/11 15:16:35;;;;;;;6.90;6.10;;;43.60;41.30;;;;;;8314569;28;20018;-83
2023/07/11 15:20:36;;;;;;;9.35;5.85;;;43.80;42.00;;;;;;8322868;28;20029;-81
2023/07/11 15:24:42;;;;;;;9.02;5.22;;;44.50;41.40;;;;;;8337360;28;20079;-83
2023/07/11 15:28:43;;;;;;;6.65;4.88;;;44.40;41.30;;;;;;8321569;28;20450;-81
2023/07/11 15:32:44;;;;;;;8.60;5.00;;;43.30;40.50;;;;;;8320997;28;20026;-83
2023/07/11 15:36:45;;;;;;;8.18;5.18;;;41.40;43.50;;;;;;8311291;28;20507;-82
2023/07/11 15:40:48;;;;;;;9.20;4.85;;;41.70;42.50;;;;;;8319635;28;20030;-82
2023/07/11 15:44:52;;;;;;;9.68;5.45;;;41.70;43.10;;;;;;8276636;28;20027;-83
2023/07/11 15:48:56;;;;;;;8.63;5.45;;;40.20;45.70;;;;;;8296346;28;20045;-83
2023/07/11 15:52:58;;;;;;;9.85;5.05;;;38.10;49.30;;;;;;8299398;28;20476;-82
2023/07/11 15:56:59;;;;;;;7.93;5.30;;;36.70;47.50;;;;;;8284387;28;20030;-83
2023/07/11 16:00:59;;;;;;;9.82;5.22;;;35.90;48.00;;;;;;8280864;28;20046;-82
2023/07/11 16:05:00;;;;;;;11.27;5.18;;;35.30;51.80;;;;;;8278520;28;20075;-81
2023/07/11 16:09:00;;;;;;;5.63;4.80;;;35.10;48.60;;;;;;8288599;28;20018;-81
2023/07/11 16:13:01;;;;;;;8.95;4.75;;;35.00;48.90;;;;;;8303027;28;20368;-81
2023/07/11 16:17:02;;;;;;;6.72;4.65;;;34.90;51.60;;;;;;8276239;28;20033;-81
2023/07/11 16:21:02;;;;;;;9.75;4.90;;;35.00;50.90;;;;;;8268627;28;20026;-82
2023/07/11 16:25:08;;;;;;;6.22;4.63;;;34.70;52.20;;;;;;8288216;28;20100;-82
2023/07/11 16:29:21;;;;;;;12.43;5.05;;;34.70;52.80;;;;;;8284935;28;20038;-81
2023/07/11 16:33:25;;;;;;;9.85;4.97;;;34.90;50.50;;;;;;8271867;28;20030;-82
2023/07/11 16:37:26;;;;;;;7.22;5.03;;;34.80;50.70;;;;;;8280994;28;20038;-81
2023/07/11 16:41:27;;;;;;;8.35;5.03;;;34.60;49.60;;;;;;8328019;28;20038;-82
2023/07/11 16:45:35;;;;;;;7.63;4.93;;;34.40;49.70;;;;;;8332641;28;20034;-83
2023/07/11 16:49:39;;;;;;;8.18;5.82;;;34.20;54.90;;;;;;8321465;23;20076;-82
2023/07/11 16:53:39;;;;;;;6.90;5.55;;;34.00;49.50;;;;;;8317691;28;20018;-82
2023/07/11 16:57:40;;;;;;;7.32;6.13;;;33.90;50.90;;;;;;8303054;28;20083;-82
2023/07/11 17:01:42;;;;;;;11.40;5.65;;;33.70;52.70;;;;;;8315764;28;20037;-83
2023/07/11 17:05:44;;;;;;;7.93;5.72;;;33.50;55.00;;;;;;8317072;28;20064;-83
2023/07/11 17:09:44;;;;;;;9.32;5.55;;;33.20;52.80;;;;;;8356879;22;20069;-84
2023/07/11 17:13:45;;;;;;;13.73;5.40;;;33.00;55.60;;;;;;8286538;28;20458;-84
2023/07/11 17:17:46;;;;;;;9.43;5.43;;;32.90;59.40;;;;;;8272417;28;20053;-84
2023/07/11 17:21:46;;;;;;;11.65;5.30;;;32.60;61.70;;;;;;8291512;28;20058;-85
2023/07/11 17:25:47;;;;;;;8.63;5.13;;;32.20;66.70;;;;;;8278087;28;20018;-83
2023/07/11 17:29:49;;;;;;;11.32;6.03;;;32.00;66.50;;;;;;8300408;28;20101;-84
2023/07/11 17:33:52;;;;;;;10.82;5.82;;;31.70;71.00;;;;;;8282799;28;20033;-83
2023/07/11 17:37:53;;;;;;;8.23;5.72;;;31.80;58.10;;;;;;8276502;28;20026;-83
2023/07/11 17:42:01;;;;;;;8.75;5.65;;;31.60;57.70;;;;;;8280952;28;20057;-84
2023/07/11 17:46:08;;;;;;;8.02;5.68;;;31.50;63.50;;;;;;8282351;28;20126;-84
2023/07/11 17:50:21;;;;;;;9.05;6.40;;;31.20;64.30;;;;;;8286520;28;20399;-84
2023/07/11 17:54:21;;;;;;;8.00;5.22;;;31.10;70.00;;;;;;8282272;28;20600;-83
2023/07/11 17:58:28;;;;;;;8.25;6.22;;;31.00;71.30;;;;;;8299688;28;20034;-84
2023/07/11 18:02:29;;;;;;;8.00;5.85;;;30.80;74.90;;;;;;8294936;28;20056;-83
2023/07/11 18:06:30;;;;;;;8.70;5.63;;;30.80;70.00;;;;;;8315291;28;20522;-83
2023/07/11 18:10:31;;;;;;;9.00;5.72;;;31.00;70.60;;;;;;8278397;28;20022;-85
2023/07/11 18:14:31;;;;;;;9.68;6.63;;;30.70;77.20;;;;;;8276765;28;20033;-84
2023/07/11 18:18:32;;;;;;;11.50;5.63;;;30.00;82.10;;;;;;8294114;28;20025;-83
2023/07/11 18:22:32;;;;;;;9.15;5.97;;;29.60;82.70;;;;;;8296418;28;20025;-84
2023/07/11 18:26:33;;;;;;;8.95;6.03;;;29.20;87.80;;;;;;8277771;28;20036;-85
2023/07/11 18:30:33;;;;;;;6.88;5.50;;;28.70;84.80;;;;;;8296517;28;20029;-86
2023/07/11 18:34:34;;;;;;;8.52;5.93;;;28.60;90.40;;;;;;8291421;28;20018;-84
2023/07/11 18:38:35;;;;;;;7.90;6.13;;;28.00;91.30;;;;;;8290598;28;20022;-83
2023/07/11 18:42:35;;;;;;;6.72;6.03;;;27.60;93.80;;;;;;8276147;28;20396;-83
2023/07/11 18:46:36;;;;;;;11.57;6.72;;;27.30;95.40;;;;;;8294038;28;20112;-83
2023/07/11 18:50:37;;;;;;;9.65;6.38;;;27.40;95.40;;;;;;8294866;28;20022;-82
2023/07/11 18:54:37;;;;;;;8.90;6.57;;;27.40;94.80;;;;;;8284015;28;20026;-82
2023/07/11 18:58:38;;;;;;;12.95;6.47;;;27.30;95.80;;;;;;8278293;28;20065;-83
2023/07/11 19:02:38;;;;;;;12.43;6.95;;;26.90;97.60;;;;;;8293553;28;20033;-82
2023/07/11 19:06:39;;;;;;;10.48;6.97;;;26.60;99.00;;;;;;8316855;28;20075;-82
2023/07/11 19:10:39;;;;;;;10.50;6.97;;;26.60;98.50;;;;;;8355584;22;20067;-82
2023/07/11 19:14:40;;;;;;;11.50;6.60;;;26.20;99.90;;;;;;8421643;28;20062;-81
2023/07/11 19:18:40;;;;;;;12.40;6.90;;;26.00;99.90;;;;;;8401756;28;20025;-82
2023/07/11 19:22:42;;;;;;;9.52;6.65;;;26.00;99.90;;;;;;8421684;28;20043;-82
2023/07/11 19:26:45;;;;;;;10.73;6.43;;;26.00;99.90;;;;;;8409538;28;20019;-82
2023/07/11 19:30:49;;;;;;;9.48;7.55;;;25.80;99.90;;;;;;8428962;28;20026;-82
2023/07/11 19:34:49;;;;;;;15.98;7.25;;;25.40;99.90;;;;;;8429049;28;20481;-82
2023/07/11 19:38:50;;;;;;;14.75;7.38;;;25.10;99.90;;;;;;8428966;28;20024;-83
2023/07/11 19:42:51;;;;;;;11.98;8.00;;;24.60;99.90;;;;;;8411418;28;20028;-82
2023/07/11 19:46:52;;;;;;;15.48;7.80;;;24.50;99.90;;;;;;8410525;28;20054;-82
2023/07/11 19:50:59;;;;;;;11.32;7.13;;;24.30;99.90;;;;;;8429232;28;20032;-81
2023/07/11 19:55:02;;;;;;;14.95;7.53;;;24.30;99.90;;;;;;8411513;28;20024;-83
2023/07/11 19:59:03;;;;;;;10.73;7.45;;;24.20;99.90;;;;;;8428247;28;20028;-82
2023/07/11 20:03:07;;;;;;;11.40;7.55;;;24.10;99.90;;;;;;8409595;28;20020;-82
2023/07/11 20:07:13;;;;;;;9.48;7.10;;;24.10;99.90;;;;;;8406602;28;20028;-82
2023/07/11 20:11:14;;;;;;;12.68;7.70;;;24.00;99.90;;;;;;8423761;28;20034;-83
2023/07/11 20:15:15;;;;;;;10.23;7.78;;;24.30;99.90;;;;;;8410806;28;20094;-83
2023/07/11 20:19:16;;;;;;;11.52;8.18;;;24.50;99.90;;;;;;8409835;28;20051;-82
2023/07/11 20:23:17;;;;;;;11.15;7.72;;;24.50;99.90;;;;;;8426343;28;20020;-82
2023/07/11 20:27:18;;;;;;;14.23;8.32;;;24.60;99.90;;;;;;8410233;28;20048;-82
2023/07/11 20:31:19;;;;;;;11.63;7.53;;;24.40;99.90;;;;;;8420971;28;20020;-82
2023/07/11 20:35:20;;;;;;;14.20;8.38;;;24.70;99.90;;;;;;8426031;28;20044;-81
2023/07/11 20:39:20;;;;;;;9.75;7.65;;;24.70;99.90;;;;;;8409680;28;20528;-82
2023/07/11 20:43:21;;;;;;;10.15;8.02;;;24.10;99.90;;;;;;8410173;28;20035;-81
2023/07/11 20:47:22;;;;;;;6.85;5.47;;;24.00;99.90;;;;;;8409452;28;20022;-81
